Time;durP1;ratioP1;P1;durP2;ratioP2;P2;SDS_P1;SDS_P2;PMS_P1;PMS_P2;Temp;Humidity;BMP_temperature;BMP_pressure;BME280_temperature;BME280_humidity;BME280_pressure;Samples;Min_cycle;Max_cycle;Signal;HPM_P1;HPM_P2
2021/09/29 00:00:56;;;;;;;14.65;3.55;;;;;;;12.50;88.56;101390.91;5009688;28;20087;-77
2021/09/29 00:03:23;;;;;;;12.05;3.65;;;;;;;12.45;88.68;101392.75;5019064;28;20053;-76
2021/09/29 00:05:49;;;;;;;16.88;3.00;;;;;;;12.45;88.87;101395.34;5011690;28;20050;-76
2021/09/29 00:08:16;;;;;;;11.43;3.10;;;;;;;12.44;88.89;101394.47;5013836;28;20054;-76
2021/09/29 00:10:43;;;;;;;9.20;3.13;;;;;;;12.43;89.21;101386.69;5019675;28;20046;-76
2021/09/29 00:13:11;;;;;;;10.98;3.25;;;;;;;12.43;88.89;101387.53;5026870;28;20054;-76
2021/09/29 00:15:38;;;;;;;12.55;3.17;;;;;;;12.43;88.89;101384.91;5006095;28;20054;-76
2021/09/29 00:18:04;;;;;;;8.93;2.97;;;;;;;12.43;89.10;101378.84;5023275;28;20049;-75
2021/09/29 00:20:31;;;;;;;6.82;2.42;;;;;;;12.40;89.28;101384.13;5006488;28;20104;-76
2021/09/29 00:22:58;;;;;;;13.65;2.95;;;;;;;12.38;89.25;101378.06;5013297;28;20054;-76
2021/09/29 00:25:24;;;;;;;11.02;2.70;;;;;;;12.38;89.31;101378.06;5012100;28;20057;-76
2021/09/29 00:27:51;;;;;;;10.60;2.35;;;;;;;12.37;89.60;101371.16;5013318;28;20703;-76
2021/09/29 00:30:19;;;;;;;17.08;3.05;;;;;;;12.28;89.54;101362.56;5020997;28;20042;-76
2021/09/29 00:32:46;;;;;;;12.90;2.42;;;;;;;12.24;89.88;101360.91;5007624;28;20049;-77
2021/09/29 00:35:14;;;;;;;9.63;2.90;;;;;;;12.24;90.14;101352.19;5013642;28;20468;-76
2021/09/29 00:37:41;;;;;;;15.50;4.18;;;;;;;12.24;90.23;101360.03;5015146;28;20053;-76
2021/09/29 00:40:09;;;;;;;12.50;3.35;;;;;;;12.22;90.01;101360.06;5017274;28;20047;-76
2021/09/29 00:42:36;;;;;;;14.65;3.17;;;;;;;12.20;90.09;101354.00;5006877;28;20191;-76
2021/09/29 00:45:03;;;;;;;9.82;3.03;;;;;;;12.28;90.02;101352.13;5010016;28;20038;-76
2021/09/29 00:47:32;;;;;;;11.27;3.20;;;;;;;12.22;90.19;101347.03;5012479;28;20437;-77
2021/09/29 00:49:59;;;;;;;13.02;3.70;;;;;;;12.25;90.14;101346.09;5013249;28;20045;-77
2021/09/29 00:52:25;;;;;;;8.60;2.40;;;;;;;12.21;90.27;101336.63;5019657;28;20057;-76
2021/09/29 00:54:52;;;;;;;13.73;4.32;;;;;;;12.22;90.35;101335.75;5015648;28;20049;-76
2021/09/29 00:57:18;;;;;;;9.93;2.92;;;;;;;12.14;90.65;101328.03;5008649;28;20049;-76
2021/09/29 00:59:51;;;;;;;11.73;3.47;;;;;;;12.19;90.53;101331.41;5016812;28;20060;-76
2021/09/29 01:02:18;;;;;;;12.18;3.00;;;;;;;12.21;90.64;101328.78;5012135;28;20045;-76
2021/09/29 01:04:47;;;;;;;11.25;2.92;;;;;;;12.22;90.86;101320.09;5014334;28;20149;-77
2021/09/29 01:07:19;;;;;;;8.98;2.67;;;;;;;12.22;90.95;101320.09;5013205;28;20049;-75
2021/09/29 01:09:54;;;;;;;9.77;2.70;;;;;;;12.28;90.37;101312.16;5015408;28;20045;-76
2021/09/29 01:12:27;;;;;;;10.80;3.08;;;;;;;12.24;90.70;101311.34;4996601;28;20058;-76
2021/09/29 01:14:59;;;;;;;11.13;3.10;;;;;;;12.21;90.81;101303.56;4999274;28;20045;-77
2021/09/29 01:17:26;;;;;;;10.35;2.75;;;;;;;12.23;91.16;101307.00;5015171;28;20054;-75
2021/09/29 01:20:04;;;;;;;13.63;3.22;;;;;;;12.19;91.08;101300.13;5006162;28;20053;-77
2021/09/29 01:22:51;;;;;;;11.68;3.17;;;;;;;12.15;91.37;101293.25;5009987;28;20108;-77
2021/09/29 01:25:23;;;;;;;11.88;3.03;;;;;;;12.17;91.37;101294.09;5010818;28;20069;-77
2021/09/29 01:27:52;;;;;;;13.27;3.20;;;;;;;12.20;90.80;101285.34;5013922;28;20509;-77
2021/09/29 01:30:19;;;;;;;14.43;2.47;;;;;;;12.19;91.13;101289.69;5015601;28;20413;-77
2021/09/29 01:32:47;;;;;;;14.30;4.05;;;;;;;12.15;90.98;101282.81;5011792;28;20049;-77
2021/09/29 01:35:14;;;;;;;9.55;2.95;;;;;;;12.12;91.17;101272.44;5010374;28;20100;-77
2021/09/29 01:37:41;;;;;;;9.25;2.75;;;;;;;12.14;91.38;101273.25;5013620;28;20046;-76
2021/09/29 01:40:10;;;;;;;15.35;3.17;;;;;;;12.18;90.76;101271.47;5013239;28;20045;-76
2021/09/29 01:42:37;;;;;;;8.57;2.65;;;;;;;12.15;90.95;101266.28;5012500;28;20046;-77
2021/09/29 01:45:06;;;;;;;14.38;3.53;;;;;;;12.15;90.88;101266.28;5015052;28;20049;-76
2021/09/29 01:47:32;;;;;;;8.73;2.97;;;;;;;12.11;90.87;101260.28;5014918;28;20054;-77
2021/09/29 01:50:00;;;;;;;10.40;2.88;;;;;;;12.13;90.81;101250.69;5004072;28;20484;-77
2021/09/29 01:52:30;;;;;;;13.75;2.92;;;;;;;12.13;90.94;101250.69;5010220;28;20096;-76
2021/09/29 01:54:57;;;;;;;16.38;3.25;;;;;;;12.11;90.92;101245.50;5013158;28;20506;-77
2021/09/29 01:57:25;;;;;;;10.10;2.78;;;;;;;12.14;90.63;101249.81;5012268;28;20053;-77
2021/09/29 01:59:51;;;;;;;14.68;3.35;;;;;;;12.15;90.43;101248.03;5005477;28;20049;-76
2021/09/29 02:02:19;;;;;;;9.10;2.42;;;;;;;12.14;90.56;101244.59;5006379;28;20394;-76
2021/09/29 02:04:47;;;;;;;13.57;2.75;;;;;;;12.15;90.90;101229.78;5004181;28;20057;-77
2021/09/29 02:07:13;;;;;;;12.45;2.90;;;;;;;12.16;90.90;101236.72;5009787;28;20046;-75
2021/09/29 02:09:40;;;;;;;10.95;3.17;;;;;;;12.17;90.69;101233.22;5015872;28;20046;-76
2021/09/29 02:12:07;;;;;;;14.93;3.13;;;;;;;12.20;90.38;101222.75;5016509;28;20052;-76
2021/09/29 02:14:34;;;;;;;12.10;3.58;;;;;;;12.25;89.89;101228.72;5009514;28;20042;-76
2021/09/29 02:17:00;;;;;;;11.93;2.83;;;;;;;12.22;89.73;101223.59;5015330;28;20432;-76
2021/09/29 02:19:28;;;;;;;11.98;3.47;;;;;;;12.17;89.97;101228.00;5007710;28;20414;-75
2021/09/29 02:21:55;;;;;;;9.88;2.60;;;;;;;12.17;89.81;101222.78;4999500;28;20778;-74
2021/09/29 02:24:22;;;;;;;10.68;2.63;;;;;;;12.11;90.10;101215.94;4997480;28;20054;-76
2021/09/29 02:26:49;;;;;;;12.57;2.78;;;;;;;12.10;90.24;101219.44;5010835;28;20053;-75
2021/09/29 02:29:16;;;;;;;9.38;2.30;;;;;;;12.13;90.34;101216.78;4998786;28;20058;-76
2021/09/29 02:31:43;;;;;;;11.45;3.00;;;;;;;12.08;90.24;101214.25;5009665;28;20046;-76
2021/09/29 02:34:10;;;;;;;10.70;2.47;;;;;;;12.07;90.28;101212.53;5001600;28;20466;-76
2021/09/29 02:36:38;;;;;;;9.27;2.78;;;;;;;12.13;89.89;101214.16;5003448;28;20050;-76
2021/09/29 02:39:05;;;;;;;13.38;3.47;;;;;;;12.05;89.95;101210.84;5010476;28;20054;-74
2021/09/29 02:41:33;;;;;;;12.15;3.17;;;;;;;12.01;90.01;101209.16;5003249;28;20129;-76
2021/09/29 02:43:59;;;;;;;11.88;3.55;;;;;;;11.98;90.39;101203.13;5013305;28;20049;-74
2021/09/29 02:46:26;;;;;;;10.52;3.28;;;;;;;12.02;90.22;101201.34;5005334;28;20054;-76
2021/09/29 02:48:53;;;;;;;10.35;3.03;;;;;;;12.02;90.10;101198.72;5009574;28;20060;-76
2021/09/29 02:51:20;;;;;;;11.13;2.58;;;;;;;11.96;90.21;101196.19;5000847;28;20046;-75
2021/09/29 02:53:48;;;;;;;18.30;3.58;;;;;;;11.96;90.32;101199.66;5000568;28;20058;-76
2021/09/29 02:56:14;;;;;;;7.32;3.05;;;;;;;11.94;90.08;101200.56;5010292;28;20050;-75
2021/09/29 02:58:40;;;;;;;12.75;3.28;;;;;;;11.90;90.07;101191.94;5010581;28;20053;-75
2021/09/29 03:01:07;;;;;;;12.48;3.70;;;;;;;11.85;90.52;101188.56;5003397;28;20520;-76
2021/09/29 03:03:33;;;;;;;10.77;3.95;;;;;;;11.88;90.46;101190.25;5008231;28;20053;-75
2021/09/29 03:06:00;;;;;;;14.80;3.78;;;;;;;11.85;90.60;101190.28;5006677;28;20081;-75
2021/09/29 03:08:26;;;;;;;12.32;3.53;;;;;;;11.88;90.50;101190.25;5012841;28;20058;-75
2021/09/29 03:10:54;;;;;;;9.23;2.65;;;;;;;11.83;90.37;101180.75;5009637;28;20049;-77
2021/09/29 03:13:21;;;;;;;9.23;2.95;;;;;;;11.82;90.45;101183.38;5008107;28;20053;-76
2021/09/29 03:15:48;;;;;;;8.52;2.58;;;;;;;11.77;90.42;101183.47;5007789;28;20045;-76
2021/09/29 03:18:15;;;;;;;14.50;3.65;;;;;;;11.76;90.70;101186.97;4995624;28;20112;-76
2021/09/29 03:20:42;;;;;;;10.55;3.00;;;;;;;11.75;90.76;101187.84;5016202;28;20050;-76
2021/09/29 03:23:09;;;;;;;8.90;3.63;;;;;;;11.76;90.99;101184.34;5011055;28;20057;-77
2021/09/29 03:25:35;;;;;;;16.15;4.00;;;;;;;11.77;90.84;101185.22;5012060;28;20055;-75
2021/09/29 03:28:03;;;;;;;13.20;3.05;;;;;;;11.75;90.58;101180.03;5007533;28;20057;-75
2021/09/29 03:30:30;;;;;;;11.27;3.17;;;;;;;11.71;90.66;101172.28;5006923;28;20420;-76
2021/09/29 03:32:57;;;;;;;11.77;3.65;;;;;;;11.66;90.76;101161.94;5015350;28;20425;-75
2021/09/29 03:35:24;;;;;;;11.77;3.63;;;;;;;11.65;90.78;101161.09;5002246;28;20053;-75
2021/09/29 03:37:51;;;;;;;10.32;3.05;;;;;;;11.64;90.92;101159.38;5004030;28;20048;-76
2021/09/29 03:40:18;;;;;;;11.18;3.20;;;;;;;11.60;90.80;101154.25;5011353;28;20498;-76
2021/09/29 03:42:45;;;;;;;14.75;3.58;;;;;;;11.58;90.96;101154.25;5002834;28;20050;-76
2021/09/29 03:45:13;;;;;;;10.75;3.15;;;;;;;11.54;91.04;101151.72;5001976;28;20041;-76
2021/09/29 03:47:42;;;;;;;10.90;3.95;;;;;;;11.56;90.65;101147.34;5012324;28;20057;-76
2021/09/29 03:50:09;;;;;;;8.68;2.88;;;;;;;11.54;90.81;101143.91;5000462;28;20493;-75
2021/09/29 03:52:35;;;;;;;9.52;3.15;;;;;;;11.56;90.43;101140.41;5009749;28;20533;-74
2021/09/29 03:55:01;;;;;;;8.43;3.15;;;;;;;11.54;90.50;101143.91;5007571;28;20521;-74
2021/09/29 03:57:28;;;;;;;10.88;2.80;;;;;;;11.50;90.82;101140.50;5000532;28;20520;-74
2021/09/29 03:59:54;;;;;;;8.90;2.53;;;;;;;11.49;90.85;101141.38;5006102;28;20049;-76
2021/09/29 04:02:22;;;;;;;13.75;3.55;;;;;;;11.54;90.84;101136.09;5009415;28;20156;-76
2021/09/29 04:04:49;;;;;;;11.85;3.13;;;;;;;11.45;90.92;101124.09;5019439;28;20050;-75
2021/09/29 04:07:15;;;;;;;10.57;3.10;;;;;;;11.47;90.98;101133.59;5006494;28;20046;-75
2021/09/29 04:09:41;;;;;;;11.75;3.33;;;;;;;11.46;90.76;101126.66;5004829;28;20046;-76
2021/09/29 04:12:08;;;;;;;8.77;3.40;;;;;;;11.42;90.92;101127.63;5006964;28;20045;-74
2021/09/29 04:14:35;;;;;;;9.85;3.33;;;;;;;11.38;90.97;101122.47;5005993;28;20046;-76
2021/09/29 04:17:01;;;;;;;13.93;3.65;;;;;;;11.37;91.18;101120.75;5013260;28;20045;-76
2021/09/29 04:19:29;;;;;;;11.13;3.28;;;;;;;11.38;91.03;101123.34;5021123;28;20054;-75
2021/09/29 04:21:55;;;;;;;9.77;3.53;;;;;;;11.33;91.11;101128.63;5000728;28;20064;-74
2021/09/29 04:24:22;;;;;;;8.80;3.97;;;;;;;11.32;91.31;101113.88;5014915;28;20064;-76
2021/09/29 04:26:48;;;;;;;13.75;3.25;;;;;;;11.32;91.43;101115.63;5013148;28;20076;-76
2021/09/29 04:29:15;;;;;;;13.23;3.40;;;;;;;11.30;91.45;101118.25;5010966;28;20054;-76
2021/09/29 04:31:42;;;;;;;13.20;3.40;;;;;;;11.29;91.50;101118.28;5010878;28;20042;-76
2021/09/29 04:34:08;;;;;;;10.35;4.18;;;;;;;11.29;91.56;101111.31;5011000;28;20064;-75
2021/09/29 04:36:36;;;;;;;10.18;2.90;;;;;;;11.30;91.52;101113.03;5010821;28;20049;-75
2021/09/29 04:39:02;;;;;;;16.15;3.75;;;;;;;11.29;91.41;101113.06;5018710;28;20433;-75
2021/09/29 04:41:29;;;;;;;12.23;4.05;;;;;;;11.27;91.40;101112.22;5002773;28;20048;-75
2021/09/29 04:43:55;;;;;;;9.68;3.90;;;;;;;11.29;91.39;101108.69;5009487;28;20049;-77
2021/09/29 04:46:22;;;;;;;11.32;3.38;;;;;;;11.28;91.63;101100.94;5008142;28;20057;-74
2021/09/29 04:48:48;;;;;;;12.05;3.80;;;;;;;11.29;91.53;101103.50;5010224;28;20053;-75
2021/09/29 04:51:15;;;;;;;11.07;3.55;;;;;;;11.22;91.76;101101.88;5006473;28;20050;-75
2021/09/29 04:53:43;;;;;;;11.50;3.30;;;;;;;11.20;91.79;101099.31;5014666;28;20152;-76
2021/09/29 04:56:09;;;;;;;12.57;4.03;;;;;;;11.22;91.63;101101.03;5012866;28;20042;-75
2021/09/29 04:58:36;;;;;;;12.38;4.50;;;;;;;11.20;91.84;101095.84;5007268;28;20064;-74
2021/09/29 05:01:03;;;;;;;10.55;3.70;;;;;;;11.19;91.97;101091.50;5012987;28;20054;-75
2021/09/29 05:03:31;;;;;;;11.70;4.03;;;;;;;11.13;91.94;101089.00;5013196;28;20085;-75
2021/09/29 05:05:58;;;;;;;11.88;4.57;;;;;;;11.15;92.05;101084.66;5003852;28;20128;-73
2021/09/29 05:08:25;;;;;;;12.32;4.30;;;;;;;11.16;92.28;101087.22;5007109;28;20055;-74
2021/09/29 05:11:00;;;;;;;12.65;4.55;;;;;;;11.17;92.63;101091.53;5009838;28;20042;-73
2021/09/29 05:13:29;;;;;;;13.30;4.15;;;;;;;11.20;92.50;101094.09;5000451;28;20137;-75
2021/09/29 05:15:56;;;;;;;11.60;4.97;;;;;;;11.20;92.59;101091.50;5011635;28;20436;-74
2021/09/29 05:18:22;;;;;;;12.48;4.32;;;;;;;11.29;92.54;101087.03;5014948;28;20531;-73
2021/09/29 05:20:49;;;;;;;16.65;4.15;;;;;;;11.31;92.49;101093.06;5015850;28;20041;-75
2021/09/29 05:23:16;;;;;;;10.38;4.53;;;;;;;11.34;92.46;101086.06;5007871;28;20082;-76
2021/09/29 05:25:42;;;;;;;17.17;5.05;;;;;;;11.41;92.39;101081.63;5010716;28;20041;-76
2021/09/29 05:28:13;;;;;;;11.30;4.32;;;;;;;11.44;92.21;101091.13;5011875;28;20053;-76
2021/09/29 05:30:39;;;;;;;13.90;4.03;;;;;;;11.47;91.89;101091.91;5010706;28;20046;-76
2021/09/29 05:33:06;;;;;;;11.77;4.03;;;;;;;11.52;91.86;101084.03;5013294;28;20058;-75
2021/09/29 05:35:33;;;;;;;10.10;4.10;;;;;;;11.55;91.93;101093.53;5007524;28;20046;-75
2021/09/29 05:37:59;;;;;;;11.20;3.95;;;;;;;11.55;91.73;101086.59;5000531;28;20049;-75
2021/09/29 05:40:26;;;;;;;12.00;3.33;;;;;;;11.59;91.12;101090.00;5012279;28;20058;-76
2021/09/29 05:42:52;;;;;;;10.52;3.13;;;;;;;11.64;90.61;101089.03;5012604;28;20072;-75
2021/09/29 05:45:21;;;;;;;11.25;3.50;;;;;;;11.69;90.19;101091.53;5001214;28;20050;-76
2021/09/29 05:47:47;;;;;;;11.10;3.03;;;;;;;11.70;90.42;101084.56;5002884;28;20096;-76
2021/09/29 05:50:14;;;;;;;12.35;3.80;;;;;;;11.70;90.08;101085.44;5012623;28;20445;-74
2021/09/29 05:52:40;;;;;;;10.00;3.58;;;;;;;11.76;90.26;101082.72;5003236;28;20046;-76
2021/09/29 05:55:08;;;;;;;14.23;3.65;;;;;;;11.76;90.28;101090.53;5003619;28;20053;-77
2021/09/29 05:57:34;;;;;;;12.70;3.30;;;;;;;11.82;89.77;101081.75;5008101;28;20556;-76
2021/09/29 06:00:01;;;;;;;13.93;4.32;;;;;;;11.88;89.35;101085.97;4994964;28;20049;-76
2021/09/29 06:02:28;;;;;;;9.68;4.15;;;;;;;11.89;89.75;101088.56;5000908;28;20405;-75
2021/09/29 06:04:55;;;;;;;14.85;3.58;;;;;;;11.86;89.94;101092.97;5007416;28;20057;-74
2021/09/29 06:07:21;;;;;;;10.57;3.88;;;;;;;11.88;90.29;101097.25;5002096;28;20069;-75
2021/09/29 06:09:48;;;;;;;20.23;5.18;;;;;;;11.90;90.60;101092.03;5015235;28;20057;-75
2021/09/29 06:12:14;;;;;;;11.50;3.50;;;;;;;11.91;91.58;101092.00;5011491;28;20057;-74
2021/09/29 06:14:48;;;;;;;13.68;4.28;;;;;;;11.86;91.89;101093.84;5009259;28;20054;-75
2021/09/29 06:17:21;;;;;;;9.68;4.15;;;;;;;11.92;92.20;101092.88;5003416;28;20058;-76
2021/09/29 06:19:50;;;;;;;16.33;5.13;;;;;;;11.82;92.81;101100.88;4998381;28;20045;-76
2021/09/29 06:22:17;;;;;;;13.75;4.20;;;;;;;11.79;93.29;101100.91;5007131;28;20046;-75
2021/09/29 06:24:43;;;;;;;11.68;4.32;;;;;;;11.79;94.19;101100.03;5002710;28;20053;-76
2021/09/29 06:27:11;;;;;;;17.95;5.63;;;;;;;11.82;94.63;101095.66;5009676;28;21349;-75
2021/09/29 06:29:37;;;;;;;16.52;5.07;;;;;;;11.90;94.84;101084.22;5009318;28;20052;-74
2021/09/29 06:32:04;;;;;;;11.85;5.10;;;;;;;11.85;95.08;101086.91;5003566;28;20053;-75
2021/09/29 06:34:31;;;;;;;18.80;5.82;;;;;;;11.87;94.51;101086.88;5008072;28;20457;-75
2021/09/29 06:36:59;;;;;;;14.15;5.65;;;;;;;11.88;94.98;101080.78;5006529;28;20422;-76
2021/09/29 06:39:25;;;;;;;14.52;5.47;;;;;;;11.90;94.91;101079.00;5008038;28;20060;-76
2021/09/29 06:41:52;;;;;;;11.48;5.50;;;;;;;11.78;95.36;101075.72;5007560;28;20459;-75
2021/09/29 06:44:18;;;;;;;10.75;5.03;;;;;;;11.80;96.12;101070.47;5001046;28;20048;-73
2021/09/29 06:46:45;;;;;;;12.95;5.28;;;;;;;11.83;96.69;101067.81;5007771;28;20049;-75
2021/09/29 06:49:11;;;;;;;16.95;5.30;;;;;;;11.96;99.03;101071.06;4996611;28;20497;-74
2021/09/29 06:51:38;;;;;;;13.40;5.50;;;;;;;12.19;98.35;101074.97;4995893;28;20107;-75
2021/09/29 06:54:06;;;;;;;16.17;6.15;;;;;;;12.41;99.76;101076.25;4997160;28;20065;-75
2021/09/29 06:56:33;;;;;;;14.93;5.00;;;;;;;12.64;99.22;101072.25;4994047;28;20046;-76
2021/09/29 06:58:59;;;;;;;13.95;5.32;;;;;;;12.77;97.43;101065.03;4995167;28;20054;-74
2021/09/29 07:01:25;;;;;;;12.75;5.15;;;;;;;13.02;98.34;101057.47;5001292;28;20088;-76
2021/09/29 07:03:52;;;;;;;13.55;4.20;;;;;;;13.11;92.04;101073.81;5000245;28;20046;-74
2021/09/29 07:06:18;;;;;;;12.60;4.43;;;;;;;13.10;92.50;101066.88;5003526;28;20046;-75
2021/09/29 07:08:46;;;;;;;10.05;4.40;;;;;;;13.14;93.35;101063.28;5002072;28;20052;-75
2021/09/29 07:11:16;;;;;;;10.88;4.40;;;;;;;13.24;93.36;101066.53;5003988;28;20045;-74
2021/09/29 07:13:42;;;;;;;11.00;4.03;;;;;;;13.34;92.39;101066.25;5008064;28;20115;-74
2021/09/29 07:16:09;;;;;;;10.68;4.15;;;;;;;13.42;92.94;101066.09;5001014;28;20058;-73
2021/09/29 07:18:38;;;;;;;8.25;3.95;;;;;;;13.47;92.71;101064.22;5003709;28;20060;-76
2021/09/29 07:21:05;;;;;;;10.07;3.92;;;;;;;13.50;92.07;101065.91;5004627;28;20057;-75
2021/09/29 07:23:31;;;;;;;13.27;5.18;;;;;;;13.56;91.27;101059.66;5005876;28;20053;-75
2021/09/29 07:25:58;;;;;;;11.52;4.43;;;;;;;13.51;90.39;101065.00;5005959;28;20050;-73
2021/09/29 07:28:25;;;;;;;14.70;5.03;;;;;;;13.37;90.46;101063.56;5003438;28;20060;-75
2021/09/29 07:30:52;;;;;;;12.60;4.75;;;;;;;13.34;92.24;101068.00;5006067;28;20050;-76
2021/09/29 07:33:19;;;;;;;15.77;5.60;;;;;;;13.39;92.08;101071.38;5008368;28;20113;-75
2021/09/29 07:35:45;;;;;;;12.38;5.57;;;;;;;13.45;90.91;101068.63;5004174;28;20053;-75
2021/09/29 07:38:12;;;;;;;17.83;5.28;;;;;;;13.45;90.51;101066.03;5008685;28;20524;-76
2021/09/29 07:40:41;;;;;;;14.75;4.38;;;;;;;13.53;92.79;101064.06;5006314;28;20053;-75
2021/09/29 07:43:08;;;;;;;16.20;5.88;;;;;;;13.72;92.98;101062.72;5001786;28;20043;-75
2021/09/29 07:45:36;;;;;;;14.75;6.90;;;;;;;13.81;90.65;101057.25;5003132;28;20413;-76
2021/09/29 07:48:03;;;;;;;15.90;7.40;;;;;;;13.74;90.55;101061.78;5004645;28;20539;-76
2021/09/29 07:50:29;;;;;;;23.67;9.20;;;;;;;13.75;90.45;101055.66;5001379;28;20145;-76
2021/09/29 07:52:56;;;;;;;17.95;9.02;;;;;;;13.71;91.18;101055.78;5004651;28;20054;-75
2021/09/29 07:55:22;;;;;;;14.85;8.13;;;;;;;13.76;91.00;101048.66;5006503;28;20049;-74
2021/09/29 07:57:49;;;;;;;18.83;8.27;;;;;;;13.86;90.62;101049.25;5004691;28;20056;-76
2021/09/29 08:00:17;;;;;;;22.08;8.93;;;;;;;13.86;90.84;101046.66;5008663;28;20145;-76
2021/09/29 08:02:45;;;;;;;14.32;7.72;;;;;;;13.89;91.43;101052.66;5003946;28;20592;-75
2021/09/29 08:05:13;;;;;;;22.27;9.90;;;;;;;13.84;90.50;101051.91;5005974;28;20059;-75
2021/09/29 08:07:39;;;;;;;17.60;8.70;;;;;;;13.82;89.17;101045.88;5007662;28;20699;-75
2021/09/29 08:10:07;;;;;;;18.48;8.40;;;;;;;13.64;90.39;101050.69;5007066;28;20068;-76
2021/09/29 08:12:34;;;;;;;15.93;7.40;;;;;;;13.70;91.89;101043.59;5004057;28;20053;-75
2021/09/29 08:15:00;;;;;;;18.67;8.30;;;;;;;13.88;90.65;101039.59;5003160;28;20046;-75
2021/09/29 08:17:27;;;;;;;16.70;7.65;;;;;;;13.87;88.91;101033.53;5002953;28;20050;-76
2021/09/29 08:19:54;;;;;;;14.07;5.82;;;;;;;13.82;90.34;101040.66;5003276;28;20421;-74
2021/09/29 08:22:21;;;;;;;11.48;5.78;;;;;;;13.79;90.07;101044.19;5008983;28;20038;-74
2021/09/29 08:24:55;;;;;;;13.50;6.32;;;;;;;13.76;90.76;101046.03;5005805;28;20465;-76
2021/09/29 08:27:28;;;;;;;17.27;4.95;;;;;;;13.75;91.21;101049.53;5001835;28;20096;-75
2021/09/29 08:30:17;;;;;;;12.52;4.90;;;;;;;13.58;91.57;101044.75;5003609;28;20053;-75
2021/09/29 08:32:48;;;;;;;12.05;4.00;;;;;;;13.42;92.78;101049.56;5008660;28;20058;-75
2021/09/29 08:35:26;;;;;;;14.88;3.88;;;;;;;13.29;93.37;101051.59;5001919;28;20080;-75
2021/09/29 08:37:58;;;;;;;11.02;3.90;;;;;;;13.14;94.88;101047.59;5007468;28;20053;-74
2021/09/29 08:40:28;;;;;;;10.77;3.88;;;;;;;13.07;95.63;101050.38;5004500;28;20050;-75
2021/09/29 08:43:16;;;;;;;12.82;3.45;;;;;;;13.12;96.34;101046.81;5004569;28;20058;-75
2021/09/29 08:45:50;;;;;;;13.55;4.30;;;;;;;13.03;96.57;101046.13;5010579;28;20053;-75
2021/09/29 08:48:25;;;;;;;13.48;3.55;;;;;;;12.98;96.79;101034.06;5001604;28;20054;-75
2021/09/29 09:15:59;;;;;;;9.77;2.27;;;;;;;13.99;99.36;101085.50;5005323;28;20083;-76
2021/09/29 09:18:26;;;;;;;9.70;2.47;;;;;;;14.28;96.94;101091.66;5010394;28;20099;-75
2021/09/29 09:20:59;;;;;;;10.50;2.67;;;;;;;14.45;93.16;101080.69;4996728;28;20057;-76
2021/09/29 09:23:35;;;;;;;4.53;1.50;;;;;;;14.53;94.11;101090.06;5000608;28;20651;-76
2021/09/29 09:26:12;;;;;;;4.28;1.73;;;;;;;14.58;90.84;101081.16;5003562;28;20052;-78
2021/09/29 09:28:39;;;;;;;5.60;1.60;;;;;;;14.64;91.74;101082.75;4998652;28;20141;-76
2021/09/29 09:31:09;;;;;;;6.05;1.48;;;;;;;14.65;89.10;101088.81;5007195;28;20062;-76
2021/09/29 09:33:47;;;;;;;3.58;0.98;;;;;;;14.59;89.01;101093.34;5008114;28;20042;-75
2021/09/29 09:36:14;;;;;;;4.47;1.55;;;;;;;14.49;90.21;101091.91;5004428;28;20409;-77
2021/09/29 09:38:43;;;;;;;7.35;1.67;;;;;;;14.56;89.48;101093.44;5005278;28;20065;-76
2021/09/29 09:41:15;;;;;;;2.63;0.70;;;;;;;14.37;86.56;101101.00;5008708;28;20049;-75
2021/09/29 09:43:52;;;;;;;2.40;1.00;;;;;;;14.15;87.30;101106.84;5012480;28;20092;-75
2021/09/29 09:46:21;;;;;;;6.03;1.08;;;;;;;13.95;88.57;101101.31;5017932;28;20049;-76
2021/09/29 09:48:59;;;;;;;3.65;1.17;;;;;;;13.76;89.87;101121.84;5011382;28;20057;-74
2021/09/29 09:51:26;;;;;;;4.35;1.45;;;;;;;13.52;90.99;101119.00;5008370;28;20053;-74
2021/09/29 09:53:55;;;;;;;5.57;1.20;;;;;;;13.41;91.78;101128.84;5018711;28;20124;-75
2021/09/29 09:56:25;;;;;;;5.20;1.25;;;;;;;13.30;92.39;101126.44;5025442;28;20125;-75
2021/09/29 09:58:54;;;;;;;3.45;1.02;;;;;;;13.16;93.92;101118.94;5029588;28;20054;-77
2021/09/29 10:01:22;;;;;;;4.72;0.98;;;;;;;13.13;93.25;101132.06;5025205;28;20037;-75
2021/09/29 10:03:51;;;;;;;3.47;1.25;;;;;;;13.22;93.43;101124.03;5040630;28;20034;-75
2021/09/29 10:06:21;;;;;;;4.30;1.40;;;;;;;13.27;92.95;101118.72;5032419;28;20042;-77
2021/09/29 10:08:53;;;;;;;6.18;1.25;;;;;;;13.26;93.94;101112.59;5027563;28;20042;-77
2021/09/29 10:11:24;;;;;;;4.35;1.48;;;;;;;13.20;94.24;101112.78;5035123;28;20033;-77
2021/09/29 10:27:45;;;;;;;5.78;1.25;;;;;;;13.27;92.94;101119.56;5004425;28;20115;-76
2021/09/29 10:30:13;;;;;;;5.15;0.88;;;;;;;13.28;93.10;101116.06;5000645;28;20054;-76
2021/09/29 10:32:42;;;;;;;5.15;1.30;;;;;;;13.28;93.93;101109.94;5000187;28;21274;-76
2021/09/29 10:35:13;;;;;;;3.90;1.10;;;;;;;13.30;93.88;101111.66;5004810;28;20053;-76
2021/09/29 10:37:58;;;;;;;3.25;1.00;;;;;;;13.36;93.37;101118.47;5003969;28;20116;-76
2021/09/29 10:40:42;;;;;;;5.05;1.48;;;;;;;13.26;95.06;101119.59;5003961;28;20045;-76
2021/09/29 10:43:21;;;;;;;4.53;1.30;;;;;;;13.26;95.10;101117.84;5001452;28;20057;-75
2021/09/29 10:48:50;;;;;;;4.53;1.20;;;;;;;13.43;93.38;101127.91;5002577;28;20552;-76
2021/09/29 11:28:01;;;;;;;5.85;2.15;;;;;;;13.79;91.47;101181.91;5006797;28;20048;-77
2021/09/29 11:30:31;;;;;;;5.93;2.20;;;;;;;13.94;90.00;101168.44;5006228;28;20089;-77
2021/09/29 11:33:00;;;;;;;4.53;1.92;;;;;;;14.13;90.59;101175.78;5002853;28;20077;-76
2021/09/29 11:35:38;;;;;;;4.10;1.70;;;;;;;14.54;88.21;101184.25;5008362;28;20053;-77
2021/09/29 12:08:44;;;;;;;6.65;1.45;;;;;;;14.42;79.33;101223.88;5007127;28;20105;-76
2021/09/29 12:11:19;;;;;;;4.55;1.52;;;;;;;14.36;80.49;101224.00;4997610;28;20057;-76
2021/09/29 12:13:50;;;;;;;7.53;1.83;;;;;;;14.35;81.78;101224.91;5002040;28;20558;-76
2021/09/29 12:16:27;;;;;;;4.78;1.20;;;;;;;14.34;80.56;101223.19;5000215;28;20089;-76
2021/09/29 12:18:56;;;;;;;3.28;1.30;;;;;;;14.42;80.15;101221.25;5002861;28;20509;-76
2021/09/29 12:21:38;;;;;;;6.00;1.83;;;;;;;14.43;79.91;101221.19;5005498;28;20045;-74
2021/09/29 12:24:07;;;;;;;3.40;1.50;;;;;;;14.50;80.28;101219.28;5001079;28;20140;-73
2021/09/29 12:26:41;;;;;;;3.67;1.60;;;;;;;14.57;81.01;101233.06;5009958;28;20058;-76
2021/09/29 12:29:18;;;;;;;4.18;1.48;;;;;;;14.59;81.63;101247.81;5004503;28;20137;-76
2021/09/29 12:31:51;;;;;;;4.78;1.40;;;;;;;14.82;82.09;101241.09;5007067;28;20058;-76
2021/09/29 12:34:26;;;;;;;2.60;1.10;;;;;;;15.05;80.71;101239.53;5002300;28;20383;-74
2021/09/29 12:36:54;;;;;;;5.72;1.30;;;;;;;14.92;79.30;101232.03;5006462;28;20050;-76
2021/09/29 12:39:22;;;;;;;7.15;2.03;;;;;;;14.76;78.62;101236.03;5009821;28;20050;-76
2021/09/29 12:41:50;;;;;;;4.55;1.20;;;;;;;14.51;79.00;101246.28;5004955;28;20061;-76
2021/09/29 12:44:18;;;;;;;7.93;2.03;;;;;;;14.40;80.68;101297.16;5006870;28;20045;-75
2021/09/29 12:46:49;;;;;;;3.45;0.77;;;;;;;13.21;77.43;101340.00;5006035;28;20132;-73
2021/09/29 12:49:19;;;;;;;6.03;0.90;;;;;;;12.25;79.75;101346.97;5014528;28;20057;-77
2021/09/29 12:51:50;;;;;;;5.50;0.90;;;;;;;11.69;nan;101346.91;5002240;28;20077;-73
2021/09/29 12:54:20;;;;;;;6.75;0.98;;;;;;;11.38;84.68;101346.47;4998860;28;20141;-74
2021/09/29 12:56:47;;;;;;;3.75;0.80;;;;;;;11.23;86.18;101345.78;5009026;28;20070;-75
2021/09/29 12:59:13;;;;;;;4.32;0.80;;;;;;;10.95;86.35;101327.00;5002864;28;20054;-76
2021/09/29 13:01:40;;;;;;;4.28;0.70;;;;;;;10.77;87.11;101328.94;5009930;28;20520;-75
2021/09/29 13:04:06;;;;;;;1.95;0.50;;;;;;;10.56;86.35;101324.81;5008780;28;20521;-76
2021/09/29 13:06:33;;;;;;;4.18;0.82;;;;;;;10.50;85.44;101315.34;5006604;28;20050;-74
2021/09/29 13:08:59;;;;;;;2.25;0.52;;;;;;;10.42;83.73;101319.75;4999378;28;20481;-75
2021/09/29 13:11:27;;;;;;;5.63;0.75;;;;;;;10.39;83.58;101304.16;5012140;28;20046;-76
2021/09/29 13:13:54;;;;;;;1.90;0.50;;;;;;;10.54;77.35;101279.75;5000527;28;20103;-75